Time;durP1;ratioP1;P1;durP2;ratioP2;P2;SDS_P1;SDS_P2;PMS_P1;PMS_P2;Temp;Humidity;BMP_temperature;BMP_pressure;BME280_temperature;BME280_humidity;BME280_pressure;Samples;Min_cycle;Max_cycle;Signal;HPM_P1;HPM_P2
2022/12/19 00:01:34;;;;;;;38.35;15.45;;;;;;;;;;5045606;28;20112;-61
2022/12/19 00:04:01;;;;;;;39.97;15.73;;;;;;;;;;5040277;28;20021;-61
2022/12/19 00:06:28;;;;;;;39.33;15.60;;;;;;;;;;5031207;28;20060;-63
2022/12/19 00:08:55;;;;;;;36.90;15.88;;;;;;;;;;5050236;28;20037;-60
2022/12/19 00:11:26;;;;;;;38.08;16.42;;;;;;;;;;5052043;28;20040;-62
2022/12/19 00:13:51;;;;;;;40.65;15.65;;;;;;;;;;5053161;28;20033;-61
2022/12/19 00:16:22;;;;;;;37.67;14.68;;;;;;;;;;5053737;28;20036;-63
2022/12/19 00:18:49;;;;;;;37.15;16.30;;;;;;;;;;5051221;28;20032;-60
2022/12/19 00:21:17;;;;;;;37.15;15.70;;;;;;;;;;5054946;28;20115;-61
2022/12/19 00:23:43;;;;;;;39.38;16.55;;;;;;;;;;5051011;28;20048;-61
2022/12/19 00:26:13;;;;;;;41.20;16.67;;;;;;;;;;5050507;28;20037;-61
2022/12/19 00:28:39;;;;;;;42.40;16.58;;;;;;;;;;5051407;28;20478;-61
2022/12/19 00:31:05;;;;;;;41.90;16.85;;;;;;;;;;5051092;28;20071;-61
2022/12/19 00:33:30;;;;;;;36.67;16.35;;;;;;;;;;5051842;28;20110;-62
2022/12/19 00:36:00;;;;;;;43.85;15.68;;;;;;;;;;5050946;28;20461;-61
2022/12/19 00:38:27;;;;;;;40.80;15.88;;;;;;;;;;5053179;28;20033;-64
2022/12/19 00:40:52;;;;;;;41.13;16.73;;;;;;;;;;5050057;28;20090;-64
2022/12/19 00:43:18;;;;;;;37.83;15.85;;;;;;;;;;5051327;28;20037;-61
2022/12/19 00:45:43;;;;;;;36.75;16.92;;;;;;;;;;5052056;28;20171;-62
2022/12/19 00:48:08;;;;;;;40.03;16.70;;;;;;;;;;5054021;28;20493;-61
2022/12/19 00:50:34;;;;;;;39.35;16.85;;;;;;;;;;5048688;28;20535;-61
2022/12/19 00:52:59;;;;;;;37.95;16.35;;;;;;;;;;5053598;28;20033;-61
2022/12/19 00:55:25;;;;;;;39.38;16.27;;;;;;;;;;5050454;28;20074;-62
2022/12/19 00:57:50;;;;;;;38.90;16.00;;;;;;;;;;5052170;28;20067;-61
2022/12/19 01:00:16;;;;;;;36.92;15.43;;;;;;;;;;5051706;28;20379;-61
2022/12/19 01:02:42;;;;;;;33.47;15.57;;;;;;;;;;5053236;28;20057;-62
2022/12/19 01:05:08;;;;;;;36.47;15.07;;;;;;;;;;5058909;28;20037;-61
2022/12/19 01:07:34;;;;;;;37.00;16.00;;;;;;;;;;5057451;28;20033;-62
2022/12/19 01:10:00;;;;;;;33.97;15.13;;;;;;;;;;5049519;28;20044;-60
2022/12/19 01:15:10;;;;;;;33.85;14.63;;;;;;;;;;5049478;28;20032;-64
2022/12/19 01:17:36;;;;;;;37.65;14.85;;;;;;;;;;5052433;28;20039;-62
2022/12/19 01:20:01;;;;;;;36.42;15.65;;;;;;;;;;5050392;28;20112;-62
2022/12/19 01:22:26;;;;;;;37.97;16.35;;;;;;;;;;5067254;28;20035;-62
2022/12/19 01:24:52;;;;;;;23.98;11.13;;;;;;;;;;5049937;28;20063;-62
2022/12/19 01:27:17;;;;;;;40.25;16.20;;;;;;;;;;5064753;28;20033;-61
2022/12/19 01:29:43;;;;;;;33.72;15.10;;;;;;;;;;5050683;28;20017;-61
2022/12/19 01:32:08;;;;;;;38.30;15.88;;;;;;;;;;5052599;28;20104;-61
2022/12/19 01:34:33;;;;;;;39.03;14.75;;;;;;;;;;5051118;28;20029;-62
2022/12/19 01:36:59;;;;;;;33.58;14.07;;;;;;;;;;5050948;28;20083;-61
2022/12/19 01:39:24;;;;;;;37.38;14.45;;;;;;;;;;5050730;28;20049;-61
2022/12/19 01:41:50;;;;;;;36.78;15.30;;;;;;;;;;5043496;28;20022;-64
2022/12/19 01:44:15;;;;;;;33.38;14.93;;;;;;;;;;5047929;28;20033;-61
2022/12/19 01:46:47;;;;;;;38.17;15.38;;;;;;;;;;5042255;28;20032;-61
2022/12/19 01:49:27;;;;;;;35.17;15.68;;;;;;;;;;5051531;28;20112;-61
2022/12/19 01:51:56;;;;;;;35.57;15.90;;;;;;;;;;5044774;28;20160;-61
2022/12/19 01:54:28;;;;;;;36.20;15.63;;;;;;;;;;5050421;28;20533;-61
2022/12/19 01:56:54;;;;;;;;;;;;;;;;;;5051195;28;20126;-61
2022/12/19 01:59:25;;;;;;;35.20;14.50;;;;;;;;;;5050298;28;19970;-61
2022/12/19 02:01:57;;;;;;;30.45;13.20;;;;;;;;;;5047263;28;20120;-62
2022/12/19 02:04:25;;;;;;;33.30;13.65;;;;;;;;;;5047024;28;20116;-61
2022/12/19 02:06:56;;;;;;;35.22;14.88;;;;;;;;;;5048626;28;20029;-61
2022/12/19 02:09:21;;;;;;;31.17;13.45;;;;;;;;;;5049245;28;20036;-61
2022/12/19 02:11:47;;;;;;;34.70;14.70;;;;;;;;;;5048483;28;20033;-60
2022/12/19 02:14:12;;;;;;;37.95;15.25;;;;;;;;;;5050389;28;20385;-62
2022/12/19 02:16:57;;;;;;;29.17;13.85;;;;;;;;;;5065192;28;20060;-60
2022/12/19 02:19:25;;;;;;;33.47;14.85;;;;;;;;;;5050188;28;20104;-59
2022/12/19 02:22:06;;;;;;;31.83;13.68;;;;;;;;;;5049307;28;20040;-60
2022/12/19 02:24:50;;;;;;;;;;;;;;;;;;5049599;28;20541;-63
2022/12/19 02:28:14;;;;;;;29.17;13.63;;;;;;;;;;5047253;28;19923;-59
2022/12/19 02:30:51;;;;;;;32.85;14.52;;;;;;;;;;5025949;28;20124;-61
2022/12/19 02:33:31;;;;;;;35.90;14.80;;;;;;;;;;5049784;28;20029;-61
2022/12/19 02:36:06;;;;;;;33.75;14.95;;;;;;;;;;5046099;28;20037;-60
2022/12/19 02:38:46;;;;;;;40.78;15.50;;;;;;;;;;5052488;28;20043;-61
2022/12/19 02:41:22;;;;;;;37.33;15.03;;;;;;;;;;5051672;28;20107;-61
2022/12/19 02:43:50;;;;;;;35.63;15.82;;;;;;;;;;5050382;28;20033;-60
2022/12/19 02:46:18;;;;;;;37.70;16.05;;;;;;;;;;5051541;28;20043;-59
2022/12/19 02:48:43;;;;;;;32.58;15.10;;;;;;;;;;5048632;28;20029;-60
2022/12/19 02:51:09;;;;;;;33.45;15.40;;;;;;;;;;5048039;28;20568;-59
2022/12/19 02:53:36;;;;;;;34.83;15.27;;;;;;;;;;5049638;28;20033;-63
2022/12/19 02:56:34;;;;;;;33.72;15.25;;;;;;;;;;5048281;28;20076;-61
2022/12/19 02:59:40;;;;;;;30.00;14.02;;;;;;;;;;5050241;28;20028;-60
2022/12/19 03:02:30;;;;;;;32.17;13.18;;;;;;;;;;5046593;28;21766;-59
2022/12/19 03:05:14;;;;;;;35.22;14.73;;;;;;;;;;5047421;28;20222;-60
2022/12/19 03:07:53;;;;;;;35.13;15.48;;;;;;;;;;5046014;28;20503;-62
2022/12/19 03:10:21;;;;;;;34.38;15.13;;;;;;;;;;5039962;28;20407;-58
2022/12/19 03:12:53;;;;;;;36.22;15.18;;;;;;;;;;5047805;28;20056;-59
2022/12/19 03:15:19;;;;;;;30.77;11.85;;;;;;;;;;5048041;28;20039;-58
2022/12/19 03:17:45;;;;;;;32.58;13.90;;;;;;;;;;5047868;28;20032;-58
2022/12/19 03:20:24;;;;;;;26.80;13.32;;;;;;;;;;5046343;28;20115;-57
2022/12/19 03:22:50;;;;;;;30.92;12.50;;;;;;;;;;5029637;28;20497;-57
2022/12/19 03:25:15;;;;;;;27.15;13.95;;;;;;;;;;5048349;28;20037;-58
2022/12/19 03:27:42;;;;;;;27.17;12.35;;;;;;;;;;5043385;28;20378;-62
2022/12/19 03:30:14;;;;;;;24.90;11.52;;;;;;;;;;5048998;28;20047;-57
2022/12/19 03:32:42;;;;;;;27.80;12.95;;;;;;;;;;5049062;28;20035;-62
2022/12/19 03:35:21;;;;;;;27.80;12.45;;;;;;;;;;5048598;28;20041;-58
2022/12/19 03:37:49;;;;;;;23.98;11.88;;;;;;;;;;5047994;28;20033;-58
2022/12/19 03:40:18;;;;;;;27.20;12.88;;;;;;;;;;5046758;28;20040;-60
2022/12/19 03:45:39;;;;;;;26.17;12.68;;;;;;;;;;5048433;28;20044;-58
2022/12/19 03:48:10;;;;;;;26.85;12.23;;;;;;;;;;5047834;28;20040;-59
2022/12/19 03:50:52;;;;;;;23.90;12.15;;;;;;;;;;5047196;28;20029;-62
2022/12/19 03:53:37;;;;;;;22.67;10.45;;;;;;;;;;5048085;28;20037;-58
2022/12/19 03:56:16;;;;;;;22.75;10.27;;;;;;;;;;5007398;28;1115410;-57
2022/12/19 03:58:46;;;;;;;26.83;12.18;;;;;;;;;;5048734;28;20044;-62
2022/12/19 04:01:13;;;;;;;23.73;12.20;;;;;;;;;;5048722;28;20029;-60
2022/12/19 04:03:38;;;;;;;25.85;11.65;;;;;;;;;;5046401;28;20105;-62
2022/12/19 04:06:05;;;;;;;25.95;12.40;;;;;;;;;;5045871;28;20105;-59
2022/12/19 04:08:31;;;;;;;26.90;12.38;;;;;;;;;;5046206;28;20381;-55
2022/12/19 04:11:03;;;;;;;25.92;12.15;;;;;;;;;;5047600;28;20394;-57
2022/12/19 04:13:38;;;;;;;29.85;13.32;;;;;;;;;;5043439;28;20116;-57
2022/12/19 04:16:23;;;;;;;26.85;12.65;;;;;;;;;;5047026;28;20037;-62
2022/12/19 04:19:09;;;;;;;29.90;12.38;;;;;;;;;;5033111;28;20024;-62
2022/12/19 04:21:42;;;;;;;28.75;13.25;;;;;;;;;;5036774;28;20146;-61
2022/12/19 04:24:15;;;;;;;28.63;13.70;;;;;;;;;;5047172;28;20029;-61
2022/12/19 04:26:44;;;;;;;30.05;13.48;;;;;;;;;;5046285;28;20116;-63
2022/12/19 04:29:11;;;;;;;31.83;13.70;;;;;;;;;;5037640;28;20092;-61
2022/12/19 04:31:37;;;;;;;30.63;13.00;;;;;;;;;;5047801;28;20500;-63
2022/12/19 04:34:02;;;;;;;22.30;10.85;;;;;;;;;;5045167;28;20494;-61
2022/12/19 04:36:28;;;;;;;28.55;12.25;;;;;;;;;;5049979;28;20035;-61
2022/12/19 04:38:54;;;;;;;29.23;13.15;;;;;;;;;;5048847;28;20035;-59
2022/12/19 04:41:19;;;;;;;26.35;11.63;;;;;;;;;;5049202;28;20033;-60
2022/12/19 04:43:44;;;;;;;23.52;10.90;;;;;;;;;;5048084;28;20491;-63
2022/12/19 04:46:10;;;;;;;26.95;12.73;;;;;;;;;;5047280;28;20401;-61
2022/12/19 04:48:36;;;;;;;26.50;12.57;;;;;;;;;;5050327;28;20029;-59
2022/12/19 04:51:01;;;;;;;24.17;11.15;;;;;;;;;;5047683;28;20711;-59
2022/12/19 04:53:26;;;;;;;27.05;12.98;;;;;;;;;;5045448;28;20025;-61
2022/12/19 04:56:02;;;;;;;29.60;14.20;;;;;;;;;;5050214;28;20479;-59
2022/12/19 04:58:28;;;;;;;27.98;14.02;;;;;;;;;;5051282;28;20380;-61
2022/12/19 05:00:53;;;;;;;31.20;14.32;;;;;;;;;;5050038;28;20458;-58
2022/12/19 05:03:19;;;;;;;29.52;14.00;;;;;;;;;;5052242;28;20029;-59
2022/12/19 05:05:44;;;;;;;30.25;13.82;;;;;;;;;;5050812;28;20083;-63
2022/12/19 05:08:10;;;;;;;33.88;15.00;;;;;;;;;;5050804;28;20040;-60
2022/12/19 05:10:36;;;;;;;31.05;15.05;;;;;;;;;;5053664;28;20386;-61
2022/12/19 05:13:01;;;;;;;32.22;14.90;;;;;;;;;;5049186;28;20163;-62
2022/12/19 05:15:26;;;;;;;32.30;13.93;;;;;;;;;;5053120;28;20351;-61
2022/12/19 05:17:52;;;;;;;34.35;14.98;;;;;;;;;;5048561;28;20025;-61
2022/12/19 05:20:17;;;;;;;32.72;14.70;;;;;;;;;;5052087;28;20466;-61
2022/12/19 05:22:43;;;;;;;31.10;13.50;;;;;;;;;;5050991;28;20548;-63
2022/12/19 05:25:08;;;;;;;35.20;14.85;;;;;;;;;;5050304;28;20036;-61
2022/12/19 05:27:34;;;;;;;35.67;15.98;;;;;;;;;;5050663;28;20374;-61
2022/12/19 05:30:01;;;;;;;32.53;15.00;;;;;;;;;;5053072;28;20385;-61
2022/12/19 05:32:31;;;;;;;32.97;15.05;;;;;;;;;;5051147;28;20401;-61
2022/12/19 05:34:56;;;;;;;30.88;14.43;;;;;;;;;;5050393;28;20033;-61
2022/12/19 05:37:21;;;;;;;32.22;14.57;;;;;;;;;;5050994;28;20028;-61
2022/12/19 05:39:47;;;;;;;28.42;12.20;;;;;;;;;;5050385;28;20034;-63
2022/12/19 05:42:12;;;;;;;37.70;15.80;;;;;;;;;;5051683;28;20056;-61
2022/12/19 05:44:38;;;;;;;34.78;15.60;;;;;;;;;;5050340;28;20047;-61
2022/12/19 05:47:03;;;;;;;28.63;13.32;;;;;;;;;;5051462;28;20915;-61
2022/12/19 05:49:28;;;;;;;30.00;14.27;;;;;;;;;;5050865;28;20033;-61
2022/12/19 05:51:54;;;;;;;33.00;15.15;;;;;;;;;;5050175;28;20094;-61
2022/12/19 05:54:19;;;;;;;42.17;15.00;;;;;;;;;;5050485;28;20036;-62
2022/12/19 05:56:45;;;;;;;37.42;16.17;;;;;;;;;;5050851;28;20140;-63
2022/12/19 05:59:10;;;;;;;27.38;11.85;;;;;;;;;;5049021;28;20492;-62
2022/12/19 06:01:36;;;;;;;35.08;15.00;;;;;;;;;;5045889;28;20446;-61
2022/12/19 06:04:02;;;;;;;34.75;16.15;;;;;;;;;;5048426;28;20029;-62
2022/12/19 06:06:28;;;;;;;35.47;16.67;;;;;;;;;;5048085;28;20029;-61
2022/12/19 06:08:56;;;;;;;37.50;16.10;;;;;;;;;;5045922;28;20035;-61
2022/12/19 06:11:22;;;;;;;34.95;15.70;;;;;;;;;;5046833;28;20037;-61
2022/12/19 06:13:47;;;;;;;31.27;15.40;;;;;;;;;;5051592;28;20037;-62
2022/12/19 06:16:15;;;;;;;38.72;15.32;;;;;;;;;;5049498;28;20035;-61
2022/12/19 06:18:42;;;;;;;29.67;13.40;;;;;;;;;;5050603;28;20086;-60
2022/12/19 06:21:14;;;;;;;32.05;16.10;;;;;;;;;;5043603;28;20064;-59
2022/12/19 06:23:40;;;;;;;35.67;16.30;;;;;;;;;;5046073;28;20025;-58
2022/12/19 06:26:07;;;;;;;34.10;15.32;;;;;;;;;;5047443;28;20037;-57
2022/12/19 06:28:34;;;;;;;38.03;16.52;;;;;;;;;;5047305;28;20036;-59
2022/12/19 06:31:01;;;;;;;31.02;13.27;;;;;;;;;;5050803;28;20044;-57
2022/12/19 06:33:28;;;;;;;34.05;13.98;;;;;;;;;;5050526;28;20040;-57
2022/12/19 06:36:02;;;;;;;33.33;14.95;;;;;;;;;;5049841;28;20029;-57
2022/12/19 06:38:29;;;;;;;33.63;14.75;;;;;;;;;;5049794;28;20032;-56
2022/12/19 06:43:38;;;;;;;28.10;12.98;;;;;;;;;;5053057;28;20043;-56
2022/12/19 06:46:04;;;;;;;29.45;14.50;;;;;;;;;;5050951;28;20036;-56
2022/12/19 06:48:30;;;;;;;28.92;12.90;;;;;;;;;;5049384;28;20258;-56
2022/12/19 06:50:55;;;;;;;32.78;13.98;;;;;;;;;;5068115;28;20036;-52
2022/12/19 06:53:21;;;;;;;33.22;15.07;;;;;;;;;;5049165;28;20452;-57
2022/12/19 06:55:54;;;;;;;32.15;14.52;;;;;;;;;;5052189;28;20048;-57
2022/12/19 06:58:20;;;;;;;34.85;15.50;;;;;;;;;;5047520;28;20037;-58
2022/12/19 07:00:45;;;;;;;29.73;14.93;;;;;;;;;;5049268;28;20036;-55
2022/12/19 07:03:12;;;;;;;30.05;14.73;;;;;;;;;;5049558;28;20154;-57
2022/12/19 07:05:39;;;;;;;30.83;15.40;;;;;;;;;;5051976;28;20033;-56
2022/12/19 07:08:05;;;;;;;30.98;15.32;;;;;;;;;;5053107;28;20033;-58
2022/12/19 07:10:30;;;;;;;36.13;15.77;;;;;;;;;;5049287;28;20031;-58
2022/12/19 07:12:56;;;;;;;35.95;16.08;;;;;;;;;;5049307;28;20033;-55
2022/12/19 07:15:22;;;;;;;32.85;15.52;;;;;;;;;;5065399;28;20389;-58
2022/12/19 07:17:47;;;;;;;33.67;14.77;;;;;;;;;;5050287;28;20393;-58
2022/12/19 07:20:14;;;;;;;31.23;14.50;;;;;;;;;;5047492;28;20033;-59
2022/12/19 07:22:40;;;;;;;30.15;14.15;;;;;;;;;;5046687;28;20106;-55
2022/12/19 07:25:06;;;;;;;31.50;14.60;;;;;;;;;;5048310;28;20486;-59
2022/12/19 07:27:32;;;;;;;26.45;13.93;;;;;;;;;;5035533;28;20120;-58
2022/12/19 07:29:57;;;;;;;25.23;12.93;;;;;;;;;;5031935;28;20079;-57
2022/12/19 07:32:23;;;;;;;21.83;10.88;;;;;;;;;;5065186;28;20044;-57
2022/12/19 07:34:48;;;;;;;26.88;12.77;;;;;;;;;;5050278;28;20461;-58
2022/12/19 07:37:14;;;;;;;26.75;13.20;;;;;;;;;;5049183;28;20140;-57
2022/12/19 07:39:39;;;;;;;21.02;11.70;;;;;;;;;;5063383;28;20039;-56
2022/12/19 07:42:05;;;;;;;25.08;11.18;;;;;;;;;;5049828;28;20390;-59
2022/12/19 07:44:30;;;;;;;26.42;12.77;;;;;;;;;;5050260;28;20064;-58
2022/12/19 07:46:56;;;;;;;23.42;12.63;;;;;;;;;;5031662;28;20044;-58
2022/12/19 07:49:21;;;;;;;23.00;12.20;;;;;;;;;;5031580;28;20037;-57
2022/12/19 07:51:47;;;;;;;25.77;12.77;;;;;;;;;;5046473;28;20033;-55
2022/12/19 07:54:12;;;;;;;24.23;11.95;;;;;;;;;;5050940;28;20040;-55
2022/12/19 07:56:37;;;;;;;23.33;11.68;;;;;;;;;;5053557;28;20382;-56
2022/12/19 07:59:03;;;;;;;20.80;10.02;;;;;;;;;;5049334;28;20501;-58
2022/12/19 08:01:28;;;;;;;21.92;11.27;;;;;;;;;;5050959;28;20029;-57
2022/12/19 08:03:54;;;;;;;22.30;10.68;;;;;;;;;;5050771;28;20504;-59
2022/12/19 08:06:20;;;;;;;25.08;12.27;;;;;;;;;;5047622;28;20457;-54
2022/12/19 08:08:45;;;;;;;24.38;12.50;;;;;;;;;;5051402;28;20055;-58
2022/12/19 08:11:16;;;;;;;23.00;12.10;;;;;;;;;;5048037;28;20029;-58
2022/12/19 08:13:41;;;;;;;21.02;10.38;;;;;;;;;;5050033;28;20036;-53
2022/12/19 08:16:07;;;;;;;21.77;11.95;;;;;;;;;;5047306;28;20041;-57
2022/12/19 08:18:32;;;;;;;22.88;11.57;;;;;;;;;;5050760;28;20100;-58
2022/12/19 08:20:58;;;;;;;23.83;10.95;;;;;;;;;;5048890;28;20385;-57
2022/12/19 08:23:23;;;;;;;22.48;12.23;;;;;;;;;;5050908;28;20021;-53
2022/12/19 08:25:57;;;;;;;21.70;10.43;;;;;;;;;;5048027;28;20447;-56
2022/12/19 08:28:22;;;;;;;20.70;11.35;;;;;;;;;;5047408;28;20040;-55
2022/12/19 08:30:47;;;;;;;21.75;12.23;;;;;;;;;;5052941;28;20033;-57
2022/12/19 08:33:13;;;;;;;23.63;11.20;;;;;;;;;;5053082;28;20922;-57
2022/12/19 08:35:38;;;;;;;25.10;12.35;;;;;;;;;;5053128;28;20063;-54
2022/12/19 08:38:05;;;;;;;24.30;12.25;;;;;;;;;;5062577;28;20025;-56
2022/12/19 08:40:30;;;;;;;26.15;11.88;;;;;;;;;;5055283;28;20029;-56
2022/12/19 08:42:56;;;;;;;21.15;10.13;;;;;;;;;;5052374;28;20021;-59
2022/12/19 08:45:21;;;;;;;19.15;10.38;;;;;;;;;;5053187;28;20623;-57
2022/12/19 08:47:47;;;;;;;24.80;12.95;;;;;;;;;;5053102;28;20054;-58
2022/12/19 08:50:13;;;;;;;22.23;11.77;;;;;;;;;;5052103;28;20021;-57
2022/12/19 08:52:38;;;;;;;24.38;12.40;;;;;;;;;;5053435;28;20055;-55
2022/12/19 08:55:04;;;;;;;25.13;10.80;;;;;;;;;;5053039;28;20051;-58
2022/12/19 08:57:29;;;;;;;21.75;11.23;;;;;;;;;;5054625;28;20052;-56
2022/12/19 08:59:55;;;;;;;21.08;10.63;;;;;;;;;;5052409;28;20035;-55
2022/12/19 09:02:20;;;;;;;22.38;12.15;;;;;;;;;;5050723;28;20034;-57
2022/12/19 09:04:46;;;;;;;21.27;11.15;;;;;;;;;;5053142;28;20362;-55
2022/12/19 09:07:12;;;;;;;24.00;10.77;;;;;;;;;;5050963;28;20508;-58
2022/12/19 09:09:37;;;;;;;23.13;10.68;;;;;;;;;;5053973;28;20078;-56
2022/12/19 09:12:03;;;;;;;20.60;11.02;;;;;;;;;;5055054;28;20069;-59
2022/12/19 09:14:33;;;;;;;14.85;7.70;;;;;;;;;;5073187;28;20028;-57
2022/12/19 09:16:59;;;;;;;16.45;9.45;;;;;;;;;;5055093;28;20048;-61
2022/12/19 09:19:24;;;;;;;19.77;9.45;;;;;;;;;;5061009;28;20078;-55
2022/12/19 09:21:50;;;;;;;19.75;10.50;;;;;;;;;;5059117;28;20033;-54
2022/12/19 09:24:15;;;;;;;19.98;10.35;;;;;;;;;;5049942;28;20371;-58
2022/12/19 09:26:41;;;;;;;17.75;9.32;;;;;;;;;;5052041;28;20440;-58
2022/12/19 09:29:07;;;;;;;20.63;10.30;;;;;;;;;;5050916;28;20401;-60
2022/12/19 09:31:33;;;;;;;16.98;9.05;;;;;;;;;;5052815;28;20033;-59
2022/12/19 09:33:58;;;;;;;18.48;10.65;;;;;;;;;;5049639;28;20042;-60
2022/12/19 09:36:24;;;;;;;22.58;11.00;;;;;;;;;;5050156;28;20029;-60
2022/12/19 09:38:53;;;;;;;20.70;11.05;;;;;;;;;;5058938;28;20024;-61
2022/12/19 09:41:36;;;;;;;17.60;6.90;;;;;;;;;;5061580;28;20086;-58
2022/12/19 09:44:43;;;;;;;17.77;9.90;;;;;;;;;;5050959;28;20382;-60
2022/12/19 09:47:16;;;;;;;18.60;9.98;;;;;;;;;;5034207;28;20076;-55
2022/12/19 09:49:45;;;;;;;17.35;9.90;;;;;;;;;;5043450;28;20383;-56
2022/12/19 09:52:22;;;;;;;23.10;10.88;;;;;;;;;;5041919;28;20440;-59
2022/12/19 09:55:01;;;;;;;18.50;8.85;;;;;;;;;;5058083;28;20099;-58
2022/12/19 09:57:46;;;;;;;17.25;9.75;;;;;;;;;;5046119;28;20045;-59
2022/12/19 10:00:18;;;;;;;17.38;8.52;;;;;;;;;;5051837;28;20090;-58
2022/12/19 10:03:06;;;;;;;18.02;10.00;;;;;;;;;;5052998;28;20025;-60
2022/12/19 10:05:41;;;;;;;17.15;9.25;;;;;;;;;;5047744;28;20043;-61
2022/12/19 10:08:35;;;;;;;19.30;10.30;;;;;;;;;;5044055;28;20041;-59
2022/12/19 10:11:06;;;;;;;15.65;9.23;;;;;;;;;;5062663;28;20032;-61
2022/12/19 10:13:53;;;;;;;19.08;10.27;;;;;;;;;;5072112;28;20056;-59
2022/12/19 10:16:48;;;;;;;17.52;9.45;;;;;;;;;;5051026;28;20475;-61
2022/12/19 10:19:18;;;;;;;14.75;8.77;;;;;;;;;;5049531;28;20028;-59
2022/12/19 10:22:12;;;;;;;17.85;8.43;;;;;;;;;;5053276;28;20496;-60
2022/12/19 10:25:03;;;;;;;16.92;8.00;;;;;;;;;;5051420;28;20065;-61
2022/12/19 10:27:57;;;;;;;14.20;8.15;;;;;;;;;;5043870;28;20049;-60
2022/12/19 10:30:24;;;;;;;14.65;8.23;;;;;;;;;;5032056;28;20443;-63
2022/12/19 10:33:00;;;;;;;13.65;8.10;;;;;;;;;;5036577;28;20036;-59
2022/12/19 10:35:41;;;;;;;14.15;8.00;;;;;;;;;;5048571;28;20438;-60
2022/12/19 10:38:12;;;;;;;15.35;8.07;;;;;;;;;;5050113;28;20379;-61
2022/12/19 10:40:40;;;;;;;;;;;;;;;;;;5053380;28;20036;-61
2022/12/19 10:43:35;;;;;;;14.88;7.75;;;;;;;;;;5050051;28;19913;-62
2022/12/19 10:46:08;;;;;;;16.75;8.50;;;;;;;;;;5045958;28;20037;-60
2022/12/19 10:48:33;;;;;;;16.40;8.35;;;;;;;;;;5050917;28;20465;-60
2022/12/19 10:50:58;;;;;;;14.70;7.97;;;;;;;;;;5051133;28;20036;-60
2022/12/19 10:53:27;;;;;;;18.73;8.80;;;;;;;;;;5049732;28;20115;-60
2022/12/19 10:55:54;;;;;;;16.63;7.97;;;;;;;;;;5051002;28;20049;-60
2022/12/19 10:58:34;;;;;;;17.08;8.20;;;;;;;;;;5051547;28;20029;-60
2022/12/19 11:01:23;;;;;;;14.32;7.38;;;;;;;;;;5049674;28;20102;-60
2022/12/19 11:03:55;;;;;;;13.52;7.65;;;;;;;;;;5046204;28;20028;-61
2022/12/19 11:06:43;;;;;;;13.07;7.20;;;;;;;;;;5043012;28;20044;-62
2022/12/19 11:09:20;;;;;;;14.38;7.85;;;;;;;;;;5049383;28;20152;-61
2022/12/19 11:11:48;;;;;;;14.88;7.70;;;;;;;;;;5051141;28;20055;-61
2022/12/19 11:14:30;;;;;;;11.30;7.07;;;;;;;;;;5050138;28;20056;-61
2022/12/19 11:16:55;;;;;;;13.38;6.90;;;;;;;;;;5050967;28;20033;-61
2022/12/19 11:19:29;;;;;;;11.38;6.07;;;;;;;;;;5049245;28;20078;-61
2022/12/19 11:22:18;;;;;;;12.95;6.80;;;;;;;;;;5049976;28;20049;-61
2022/12/19 11:24:48;;;;;;;15.10;7.38;;;;;;;;;;5048863;28;20037;-61
2022/12/19 11:27:41;;;;;;;13.33;7.63;;;;;;;;;;5046995;28;20134;-62
2022/12/19 11:30:28;;;;;;;11.60;6.93;;;;;;;;;;5039764;28;20080;-62
2022/12/19 11:33:26;;;;;;;11.95;6.93;;;;;;;;;;5050442;28;20548;-60
2022/12/19 11:35:57;;;;;;;11.05;6.72;;;;;;;;;;5000881;28;20064;-60
2022/12/19 11:38:47;;;;;;;12.90;7.13;;;;;;;;;;5048885;28;20040;-61
2022/12/19 11:41:18;;;;;;;13.65;7.15;;;;;;;;;;5037199;28;20045;-61
2022/12/19 11:43:55;;;;;;;15.20;7.57;;;;;;;;;;5051524;28;20083;-60
2022/12/19 11:46:48;;;;;;;11.73;6.07;;;;;;;;;;5048049;28;20032;-61
2022/12/19 11:49:25;;;;;;;11.98;7.07;;;;;;;;;;5047438;28;20029;-61
2022/12/19 11:51:57;;;;;;;12.70;7.15;;;;;;;;;;5058672;28;20036;-61
2022/12/19 11:54:49;;;;;;;12.48;5.80;;;;;;;;;;5049334;28;20473;-60
2022/12/19 11:57:15;;;;;;;12.07;6.65;;;;;;;;;;5049867;28;20084;-57
2022/12/19 11:59:41;;;;;;;12.10;6.68;;;;;;;;;;5051510;28;20060;-58
2022/12/19 12:02:44;;;;;;;11.07;6.45;;;;;;;;;;5049967;28;20028;-61
2022/12/19 12:05:42;;;;;;;11.52;6.78;;;;;;;;;;5049742;28;20025;-60
2022/12/19 12:08:16;;;;;;;10.50;6.00;;;;;;;;;;5053409;28;20033;-59
2022/12/19 12:10:59;;;;;;;12.07;6.55;;;;;;;;;;5052032;28;20040;-58
2022/12/19 12:13:30;;;;;;;13.65;6.63;;;;;;;;;;5043637;28;20047;-60
2022/12/19 12:16:03;;;;;;;;;;;;;;;;;;5054787;28;20535;-61
2022/12/19 12:18:34;;;;;;;11.65;6.95;;;;;;;;;;5052681;28;19999;-60
2022/12/19 12:21:15;;;;;;;9.20;5.45;;;;;;;;;;5055248;28;20036;-60
2022/12/19 12:24:25;;;;;;;11.10;5.80;;;;;;;;;;5054694;28;20033;-58
2022/12/19 12:27:04;;;;;;;11.63;5.80;;;;;;;;;;5037737;28;20335;-58
2022/12/19 12:29:57;;;;;;;11.35;5.38;;;;;;;;;;5053431;28;20032;-57
2022/12/19 12:32:30;;;;;;;10.52;5.22;;;;;;;;;;5046422;28;20489;-59
2022/12/19 12:35:21;;;;;;;11.45;5.18;;;;;;;;;;5053222;28;20029;-53
2022/12/19 12:38:01;;;;;;;11.17;6.10;;;;;;;;;;5051523;28;20128;-56
2022/12/19 12:40:36;;;;;;;9.98;5.78;;;;;;;;;;5038594;28;20806;-58
2022/12/19 12:43:31;;;;;;;12.02;6.20;;;;;;;;;;5046351;28;20040;-58
2022/12/19 12:45:57;;;;;;;10.50;5.88;;;;;;;;;;5054841;28;20029;-57
2022/12/19 12:48:35;;;;;;;9.77;6.20;;;;;;;;;;5053216;28;20488;-54
2022/12/19 12:51:02;;;;;;;9.52;5.55;;;;;;;;;;5054545;28;20389;-55
2022/12/19 12:53:33;;;;;;;9.95;5.82;;;;;;;;;;5053823;28;20033;-57
2022/12/19 12:56:01;;;;;;;11.50;6.47;;;;;;;;;;5053974;28;20088;-57
2022/12/19 12:58:48;;;;;;;11.27;6.40;;;;;;;;;;5064485;28;20469;-57
2022/12/19 13:01:29;;;;;;;10.32;6.07;;;;;;;;;;5051475;28;20033;-59
2022/12/19 13:04:09;;;;;;;10.73;6.35;;;;;;;;;;5052466;28;20037;-56
2022/12/19 13:06:39;;;;;;;11.75;6.55;;;;;;;;;;5047149;28;20108;-59
2022/12/19 13:09:23;;;;;;;12.50;6.50;;;;;;;;;;5052926;28;20033;-58
2022/12/19 13:14:44;;;;;;;10.75;6.30;;;;;;;;;;5047462;28;20499;-56
2022/12/19 13:17:12;;;;;;;11.10;6.45;;;;;;;;;;5048981;28;20050;-61
2022/12/19 13:19:52;;;;;;;11.98;6.20;;;;;;;;;;5062302;28;20032;-56
2022/12/19 13:22:37;;;;;;;12.55;6.28;;;;;;;;;;5052736;28;20044;-59
2022/12/19 13:25:25;;;;;;;11.50;6.35;;;;;;;;;;5069541;28;20086;-57
2022/12/19 13:28:11;;;;;;;10.40;5.85;;;;;;;;;;5050353;28;20120;-58
2022/12/19 13:31:03;;;;;;;9.55;6.03;;;;;;;;;;5034024;28;20029;-56
2022/12/19 13:34:09;;;;;;;8.98;5.53;;;;;;;;;;5051028;28;20025;-57
2022/12/19 13:36:54;;;;;;;12.10;6.78;;;;;;;;;;5010648;28;20038;-56
2022/12/19 13:39:46;;;;;;;9.70;6.03;;;;;;;;;;5050990;28;20110;-57
2022/12/19 13:45:16;;;;;;;11.40;7.07;;;;;;;;;;5053785;28;20063;-58
2022/12/19 13:47:43;;;;;;;12.63;7.13;;;;;;;;;;5053520;28;20071;-54
2022/12/19 13:50:27;;;;;;;11.77;6.90;;;;;;;;;;5052141;28;20025;-58
2022/12/19 13:52:52;;;;;;;11.23;6.97;;;;;;;;;;5053784;28;20028;-57
2022/12/19 13:55:18;;;;;;;11.73;6.60;;;;;;;;;;5062156;28;20123;-58
2022/12/19 13:57:54;;;;;;;12.52;6.53;;;;;;;;;;5052769;28;20052;-58
2022/12/19 14:00:30;;;;;;;12.25;6.38;;;;;;;;;;5057797;28;20028;-58
2022/12/19 14:02:58;;;;;;;12.85;7.22;;;;;;;;;;5073594;28;20033;-58
2022/12/19 14:05:32;;;;;;;11.77;6.88;;;;;;;;;;5059021;28;20044;-58
2022/12/19 14:07:58;;;;;;;11.48;6.57;;;;;;;;;;5052272;28;20391;-57
2022/12/19 14:10:30;;;;;;;12.30;6.55;;;;;;;;;;5052503;28;20113;-58
2022/12/19 14:15:44;;;;;;;11.55;6.40;;;;;;;;;;5043257;28;20040;-59
2022/12/19 14:18:21;;;;;;;12.85;6.28;;;;;;;;;;5071668;28;20064;-59
2022/12/19 14:20:48;;;;;;;11.50;6.80;;;;;;;;;;5054125;28;20060;-58
2022/12/19 14:23:14;;;;;;;11.73;6.90;;;;;;;;;;5051665;28;20036;-61
2022/12/19 14:25:45;;;;;;;12.07;7.00;;;;;;;;;;5055495;28;20093;-58
2022/12/19 14:28:13;;;;;;;;;;;;;;;;;;5060630;28;20039;-56
2022/12/19 14:30:41;;;;;;;14.25;6.65;;;;;;;;;;5037679;28;19908;-57
2022/12/19 14:33:13;;;;;;;12.30;6.57;;;;;;;;;;5015557;28;20026;-59
2022/12/19 14:35:54;;;;;;;11.30;6.53;;;;;;;;;;5037110;28;20067;-56
2022/12/19 14:38:26;;;;;;;10.55;6.20;;;;;;;;;;5051698;28;20139;-56
2022/12/19 14:40:52;;;;;;;10.88;6.65;;;;;;;;;;5048586;28;20037;-57
2022/12/19 14:43:38;;;;;;;11.90;6.30;;;;;;;;;;5032325;28;20037;-59
2022/12/19 14:46:19;;;;;;;12.50;6.22;;;;;;;;;;5031726;28;20442;-57
2022/12/19 14:48:53;;;;;;;11.65;6.70;;;;;;;;;;5047590;28;20033;-57
2022/12/19 14:51:33;;;;;;;10.07;6.03;;;;;;;;;;5051755;28;20044;-60
2022/12/19 14:54:07;;;;;;;11.75;5.97;;;;;;;;;;5065992;28;20032;-56
2022/12/19 14:57:00;;;;;;;11.90;6.50;;;;;;;;;;5070934;28;20049;-55
2022/12/19 14:59:26;;;;;;;14.85;6.78;;;;;;;;;;5045254;28;20543;-55
2022/12/19 15:01:56;;;;;;;11.35;5.82;;;;;;;;;;5051999;28;20029;-58
2022/12/19 15:04:26;;;;;;;11.68;6.45;;;;;;;;;;5051346;28;20041;-58
2022/12/19 15:06:55;;;;;;;10.57;6.22;;;;;;;;;;5051920;28;20143;-58